sensor_id;sensor_type;location;lat;lon;timestamp;pressure;altitude;pressure_sealevel;temperature;humidity
71666;BME280;59503;53.486;10.196;2023-03-21T00:00:38;101633.63;;;6.78;100.00
71666;BME280;59503;53.486;10.196;2023-03-21T00:03:03;101634.72;;;6.77;100.00
71666;BME280;59503;53.486;10.196;2023-03-21T00:05:29;101628.69;;;6.72;100.00
71666;BME280;59503;53.486;10.196;2023-03-21T00:07:55;101630.28;;;6.73;100.00
71666;BME280;59503;53.486;10.196;2023-03-21T00:10:21;101620.72;;;6.67;100.00
71666;BME280;59503;53.486;10.196;2023-03-21T00:12:46;101627.72;;;6.68;100.00
71666;BME280;59503;53.486;10.196;2023-03-21T00:15:14;101620.06;;;6.61;100.00
71666;BME280;59503;53.486;10.196;2023-03-21T00:17:42;101630.28;;;6.73;100.00
71666;BME280;59503;53.486;10.196;2023-03-21T00:20:09;101621.34;;;6.72;100.00
71666;BME280;59503;53.486;10.196;2023-03-21T00:22:39;101614.69;;;6.70;100.00
71666;BME280;59503;53.486;10.196;2023-03-21T00:25:06;101614.22;;;6.68;100.00
71666;BME280;59503;53.486;10.196;2023-03-21T00:27:33;101619.94;;;6.75;100.00
71666;BME280;59503;53.486;10.196;2023-03-21T00:29:59;101611.50;;;6.68;100.00
71666;BME280;59503;53.486;10.196;2023-03-21T00:32:25;101618.50;;;6.69;100.00
71666;BME280;59503;53.486;10.196;2023-03-21T00:34:50;101613.09;;;6.69;100.00
71666;BME280;59503;53.486;10.196;2023-03-21T00:37:17;101604.38;;;6.72;100.00
71666;BME280;59503;53.486;10.196;2023-03-21T00:39:43;101602.28;;;6.69;100.00
71666;BME280;59503;53.486;10.196;2023-03-21T00:42:12;101610.88;;;6.71;100.00
71666;BME280;59503;53.486;10.196;2023-03-21T00:44:38;101612.16;;;6.73;100.00
71666;BME280;59503;53.486;10.196;2023-03-21T00:47:05;101611.34;;;6.73;100.00
71666;BME280;59503;53.486;10.196;2023-03-21T00:49:30;101608.66;;;6.73;100.00
71666;BME280;59503;53.486;10.196;2023-03-21T00:51:59;101604.22;;;6.77;100.00
71666;BME280;59503;53.486;10.196;2023-03-21T00:54:24;101604.69;;;6.79;100.00
71666;BME280;59503;53.486;10.196;2023-03-21T00:56:50;101606.28;;;6.80;100.00
71666;BME280;59503;53.486;10.196;2023-03-21T00:59:15;101603.09;;;6.78;100.00
71666;BME280;59503;53.486;10.196;2023-03-21T01:01:41;101597.38;;;6.79;100.00
71666;BME280;59503;53.486;10.196;2023-03-21T01:04:07;101598.03;;;6.85;100.00
71666;BME280;59503;53.486;10.196;2023-03-21T01:06:38;101597.09;;;6.89;100.00
71666;BME280;59503;53.486;10.196;2023-03-21T01:09:04;101589.94;;;6.85;100.00
71666;BME280;59503;53.486;10.196;2023-03-21T01:11:30;101588.63;;;6.82;100.00
71666;BME280;59503;53.486;10.196;2023-03-21T01:13:56;101592.94;;;6.83;100.00
71666;BME280;59503;53.486;10.196;2023-03-21T01:16:22;101582.28;;;6.78;100.00
71666;BME280;59503;53.486;10.196;2023-03-21T01:18:48;101585.47;;;6.80;100.00
71666;BME280;59503;53.486;10.196;2023-03-21T01:21:14;101595.97;;;6.82;100.00
71666;BME280;59503;53.486;10.196;2023-03-21T01:23:40;101585.94;;;6.82;100.00
71666;BME280;59503;53.486;10.196;2023-03-21T01:26:08;101589.59;;;6.78;100.00
71666;BME280;59503;53.486;10.196;2023-03-21T01:28:37;101581.50;;;6.78;100.00
71666;BME280;59503;53.486;10.196;2023-03-21T01:31:04;101588.47;;;6.79;100.00
71666;BME280;59503;53.486;10.196;2023-03-21T01:33:30;101586.56;;;6.79;100.00
71666;BME280;59503;53.486;10.196;2023-03-21T01:35:57;101580.38;;;6.79;100.00
71666;BME280;59503;53.486;10.196;2023-03-21T01:38:23;101582.47;;;6.82;100.00
71666;BME280;59503;53.486;10.196;2023-03-21T01:40:50;101583.88;;;6.79;100.00
71666;BME280;59503;53.486;10.196;2023-03-21T01:43:25;101585.16;;;6.82;100.00
71666;BME280;59503;53.486;10.196;2023-03-21T01:48:40;101586.09;;;6.86;100.00
71666;BME280;59503;53.486;10.196;2023-03-21T01:51:08;101582.91;;;6.84;100.00
71666;BME280;59503;53.486;10.196;2023-03-21T01:53:38;101586.41;;;6.84;100.00
71666;BME280;59503;53.486;10.196;2023-03-21T01:56:13;101581.81;;;6.85;100.00
71666;BME280;59503;53.486;10.196;2023-03-21T01:58:41;101578.31;;;6.84;100.00
71666;BME280;59503;53.486;10.196;2023-03-21T02:01:08;101575.13;;;6.82;100.00
71666;BME280;59503;53.486;10.196;2023-03-21T02:03:35;101573.06;;;6.88;100.00
71666;BME280;59503;53.486;10.196;2023-03-21T02:06:10;101571.81;;;6.85;100.00
71666;BME280;59503;53.486;10.196;2023-03-21T02:08:38;101568.31;;;6.85;100.00
71666;BME280;59503;53.486;10.196;2023-03-21T02:11:04;101570.69;;;6.86;100.00
71666;BME280;59503;53.486;10.196;2023-03-21T02:13:30;101571.00;;;6.85;100.00
71666;BME280;59503;53.486;10.196;2023-03-21T02:16:00;101569.28;;;6.89;100.00
71666;BME280;59503;53.486;10.196;2023-03-21T02:23:59;101554.66;;;6.90;100.00
71666;BME280;59503;53.486;10.196;2023-03-21T02:37:25;101541.13;;;6.90;100.00
71666;BME280;59503;53.486;10.196;2023-03-21T02:45:12;101548.75;;;6.96;100.00
71666;BME280;59503;53.486;10.196;2023-03-21T02:47:41;101542.09;;;6.94;100.00
71666;BME280;59503;53.486;10.196;2023-03-21T02:50:15;101536.84;;;6.89;100.00
71666;BME280;59503;53.486;10.196;2023-03-21T02:52:45;101543.50;;;6.91;100.00
71666;BME280;59503;53.486;10.196;2023-03-21T02:55:23;101541.94;;;6.90;100.00
71666;BME280;59503;53.486;10.196;2023-03-21T02:57:54;101539.22;;;6.90;100.00
71666;BME280;59503;53.486;10.196;2023-03-21T03:00:24;101540.00;;;6.91;100.00
71666;BME280;59503;53.486;10.196;2023-03-21T03:02:50;101539.84;;;6.87;100.00
71666;BME280;59503;53.486;10.196;2023-03-21T03:05:19;101540.00;;;6.91;100.00
71666;BME280;59503;53.486;10.196;2023-03-21T03:07:55;101535.41;;;6.91;100.00
71666;BME280;59503;53.486;10.196;2023-03-21T03:10:36;101535.09;;;6.93;100.00
71666;BME280;59503;53.486;10.196;2023-03-21T03:13:14;101528.59;;;6.94;100.00
71666;BME280;59503;53.486;10.196;2023-03-21T03:18:45;101530.16;;;6.95;100.00
71666;BME280;59503;53.486;10.196;2023-03-21T03:21:27;101523.31;;;6.97;100.00
71666;BME280;59503;53.486;10.196;2023-03-21T03:29:27;101524.75;;;6.95;100.00
71666;BME280;59503;53.486;10.196;2023-03-21T03:32:05;101520.59;;;6.97;100.00
71666;BME280;59503;53.486;10.196;2023-03-21T03:34:37;101520.31;;;6.99;100.00
71666;BME280;59503;53.486;10.196;2023-03-21T03:37:07;101524.13;;;6.98;100.00
71666;BME280;59503;53.486;10.196;2023-03-21T03:39:40;101521.25;;;7.11;100.00
71666;BME280;59503;53.486;10.196;2023-03-21T03:42:14;101518.06;;;7.09;100.00
71666;BME280;59503;53.486;10.196;2023-03-21T03:44:42;101516.00;;;7.06;100.00
71666;BME280;59503;53.486;10.196;2023-03-21T03:47:17;101513.78;;;7.08;100.00
71666;BME280;59503;53.486;10.196;2023-03-21T03:49:50;101512.19;;;7.07;100.00
71666;BME280;59503;53.486;10.196;2023-03-21T03:52:22;101514.44;;;7.05;100.00
71666;BME280;59503;53.486;10.196;2023-03-21T03:54:51;101510.91;;;7.05;100.00
71666;BME280;59503;53.486;10.196;2023-03-21T03:57:18;101505.69;;;7.00;100.00
71666;BME280;59503;53.486;10.196;2023-03-21T03:59:44;101522.22;;;7.07;100.00
71666;BME280;59503;53.486;10.196;2023-03-21T04:02:11;101506.00;;;7.07;100.00
71666;BME280;59503;53.486;10.196;2023-03-21T04:04:37;101507.56;;;7.08;100.00
71666;BME280;59503;53.486;10.196;2023-03-21T04:07:03;101521.56;;;7.10;100.00
71666;BME280;59503;53.486;10.196;2023-03-21T04:09:29;101514.44;;;7.05;100.00
71666;BME280;59503;53.486;10.196;2023-03-21T04:11:55;101514.09;;;7.07;100.00
71666;BME280;59503;53.486;10.196;2023-03-21T04:14:22;101509.03;;;7.05;100.00
71666;BME280;59503;53.486;10.196;2023-03-21T04:16:47;101512.50;;;7.06;100.00
71666;BME280;59503;53.486;10.196;2023-03-21T04:19:13;101512.03;;;7.04;100.00
71666;BME280;59503;53.486;10.196;2023-03-21T04:21:40;101514.44;;;7.05;100.00
71666;BME280;59503;53.486;10.196;2023-03-21T04:24:05;101512.50;;;7.06;100.00
71666;BME280;59503;53.486;10.196;2023-03-21T04:26:31;101513.47;;;7.18;100.00
71666;BME280;59503;53.486;10.196;2023-03-21T04:28:59;101517.13;;;7.14;100.00
71666;BME280;59503;53.486;10.196;2023-03-21T04:31:25;101517.75;;;7.11;100.00
71666;BME280;59503;53.486;10.196;2023-03-21T04:33:51;101506.00;;;7.07;100.00
71666;BME280;59503;53.486;10.196;2023-03-21T04:36:17;101510.44;;;7.11;100.00
71666;BME280;59503;53.486;10.196;2023-03-21T04:39:04;101513.13;;;7.11;100.00
71666;BME280;59503;53.486;10.196;2023-03-21T04:41:37;101512.34;;;7.11;100.00
71666;BME280;59503;53.486;10.196;2023-03-21T04:44:02;101505.34;;;7.10;100.00
71666;BME280;59503;53.486;10.196;2023-03-21T04:46:28;101505.50;;;7.05;100.00
71666;BME280;59503;53.486;10.196;2023-03-21T04:48:53;101495.97;;;7.07;100.00
71666;BME280;59503;53.486;10.196;2023-03-21T04:51:19;101505.34;;;7.10;100.00
71666;BME280;59503;53.486;10.196;2023-03-21T04:53:44;101504.88;;;7.16;100.00
71666;BME280;59503;53.486;10.196;2023-03-21T04:56:14;101509.47;;;7.16;100.00
71666;BME280;59503;53.486;10.196;2023-03-21T04:58:40;101509.31;;;7.12;100.00
71666;BME280;59503;53.486;10.196;2023-03-21T05:01:06;101516.31;;;7.13;100.00
71666;BME280;59503;53.486;10.196;2023-03-21T05:03:32;101510.13;;;7.13;100.00
71666;BME280;59503;53.486;10.196;2023-03-21T05:06:00;101508.69;;;7.15;100.00
71666;BME280;59503;53.486;10.196;2023-03-21T05:08:27;101504.53;;;7.18;100.00
71666;BME280;59503;53.486;10.196;2023-03-21T05:10:52;101505.19;;;7.23;100.00
71666;BME280;59503;53.486;10.196;2023-03-21T05:13:18;101507.25;;;7.18;100.00
71666;BME280;59503;53.486;10.196;2023-03-21T05:15:43;101498.66;;;7.16;100.00
71666;BME280;59503;53.486;10.196;2023-03-21T05:18:08;101508.84;;;7.19;100.00
71666;BME280;59503;53.486;10.196;2023-03-21T05:20:38;101505.66;;;7.17;100.00
71666;BME280;59503;53.486;10.196;2023-03-21T05:23:11;101506.44;;;7.17;100.00
71666;BME280;59503;53.486;10.196;2023-03-21T05:25:38;101504.22;;;7.19;100.00
71666;BME280;59503;53.486;10.196;2023-03-21T05:28:05;101502.66;;;7.18;100.00
71666;BME280;59503;53.486;10.196;2023-03-21T05:30:32;101506.44;;;7.17;100.00
71666;BME280;59503;53.486;10.196;2023-03-21T05:32:58;101497.56;;;7.25;100.00
71666;BME280;59503;53.486;10.196;2023-03-21T05:35:24;101494.69;;;7.22;100.00
71666;BME280;59503;53.486;10.196;2023-03-21T05:37:50;101498.97;;;7.23;100.00
71666;BME280;59503;53.486;10.196;2023-03-21T05:40:15;101495.78;;;7.29;100.00
71666;BME280;59503;53.486;10.196;2023-03-21T05:42:41;101493.41;;;7.28;100.00
71666;BME280;59503;53.486;10.196;2023-03-21T05:45:07;101489.88;;;7.27;100.00
71666;BME280;59503;53.486;10.196;2023-03-21T05:47:32;101498.31;;;7.26;100.00
71666;BME280;59503;53.486;10.196;2023-03-21T05:49:58;101487.06;;;7.24;100.00
71666;BME280;59503;53.486;10.196;2023-03-21T05:52:23;101492.59;;;7.27;100.00
71666;BME280;59503;53.486;10.196;2023-03-21T05:54:49;101491.81;;;7.27;100.00
71666;BME280;59503;53.486;10.196;2023-03-21T05:57:15;101484.34;;;7.24;100.00
71666;BME280;59503;53.486;10.196;2023-03-21T05:59:43;101495.63;;;7.26;100.00
71666;BME280;59503;53.486;10.196;2023-03-21T06:02:08;101494.53;;;7.27;100.00
71666;BME280;59503;53.486;10.196;2023-03-21T06:04:34;101497.06;;;7.23;100.00
71666;BME280;59503;53.486;10.196;2023-03-21T06:07:00;101491.16;;;7.30;100.00
71666;BME280;59503;53.486;10.196;2023-03-21T06:09:25;101480.19;;;7.26;100.00
71666;BME280;59503;53.486;10.196;2023-03-21T06:11:52;101496.41;;;7.35;100.00
71666;BME280;59503;53.486;10.196;2023-03-21T06:14:20;101489.88;;;7.36;100.00
71666;BME280;59503;53.486;10.196;2023-03-21T06:16:46;101487.97;;;7.36;100.00
71666;BME280;59503;53.486;10.196;2023-03-21T06:19:11;101485.09;;;7.41;100.00
71666;BME280;59503;53.486;10.196;2023-03-21T06:21:37;101482.06;;;7.43;100.00
71666;BME280;59503;53.486;10.196;2023-03-21T06:24:03;101481.41;;;7.46;100.00
71666;BME280;59503;53.486;10.196;2023-03-21T06:26:28;101493.19;;;7.50;100.00
71666;BME280;59503;53.486;10.196;2023-03-21T06:28:54;101475.06;;;7.50;100.00
71666;BME280;59503;53.486;10.196;2023-03-21T06:31:20;101481.53;;;7.58;100.00
71666;BME280;59503;53.486;10.196;2023-03-21T06:33:47;101474.06;;;7.55;100.00
71666;BME280;59503;53.486;10.196;2023-03-21T06:36:14;101473.59;;;7.53;100.00
71666;BME280;59503;53.486;10.196;2023-03-21T06:38:39;101474.06;;;7.55;100.00
71666;BME280;59503;53.486;10.196;2023-03-21T06:41:06;101473.44;;;7.58;100.00
71666;BME280;59503;53.486;10.196;2023-03-21T06:43:32;101468.00;;;7.58;100.00
71666;BME280;59503;53.486;10.196;2023-03-21T06:45:59;101474.84;;;7.64;100.00
71666;BME280;59503;53.486;10.196;2023-03-21T06:48:25;101479.75;;;7.71;100.00
71666;BME280;59503;53.486;10.196;2023-03-21T06:50:52;101476.25;;;7.70;100.00
71666;BME280;59503;53.486;10.196;2023-03-21T06:53:19;101477.97;;;7.75;100.00
71666;BME280;59503;53.486;10.196;2023-03-21T06:55:49;101478.13;;;7.78;100.00
71666;BME280;59503;53.486;10.196;2023-03-21T06:58:15;101480.06;;;7.78;100.00
71666;BME280;59503;53.486;10.196;2023-03-21T07:00:40;101478.44;;;7.77;100.00
71666;BME280;59503;53.486;10.196;2023-03-21T07:03:06;101471.28;;;7.81;100.00
71666;BME280;59503;53.486;10.196;2023-03-21T07:05:34;101480.03;;;7.86;100.00
71666;BME280;59503;53.486;10.196;2023-03-21T07:08:00;101474.88;;;7.93;100.00
71666;BME280;59503;53.486;10.196;2023-03-21T07:10:25;101471.22;;;7.98;100.00
71666;BME280;59503;53.486;10.196;2023-03-21T07:12:51;101474.88;;;7.93;100.00
71666;BME280;59503;53.486;10.196;2023-03-21T07:15:16;101466.94;;;7.88;100.00
71666;BME280;59503;53.486;10.196;2023-03-21T07:17:42;101470.41;;;7.97;100.00
71666;BME280;59503;53.486;10.196;2023-03-21T07:20:08;101468.22;;;7.91;100.00
71666;BME280;59503;53.486;10.196;2023-03-21T07:22:34;101466.13;;;7.96;100.00
71666;BME280;59503;53.486;10.196;2023-03-21T07:25:00;101476.28;;;7.99;100.00
71666;BME280;59503;53.486;10.196;2023-03-21T07:27:26;101466.13;;;7.96;100.00
71666;BME280;59503;53.486;10.196;2023-03-21T07:29:51;101466.56;;;7.98;100.00
71666;BME280;59503;53.486;10.196;2023-03-21T07:32:17;101461.81;;;7.95;100.00
71666;BME280;59503;53.486;10.196;2023-03-21T07:34:42;101476.88;;;8.05;100.00
71666;BME280;59503;53.486;10.196;2023-03-21T07:37:08;101475.78;;;8.06;100.00
71666;BME280;59503;53.486;10.196;2023-03-21T07:39:34;101467.31;;;8.07;100.00
71666;BME280;59503;53.486;10.196;2023-03-21T07:42:01;101455.31;;;8.17;100.00
71666;BME280;59503;53.486;10.196;2023-03-21T07:44:27;101475.66;;;8.31;100.00
71666;BME280;59503;53.486;10.196;2023-03-21T07:46:53;101483.47;;;8.33;100.00
71666;BME280;59503;53.486;10.196;2023-03-21T07:49:19;101473.88;;;8.35;100.00
71666;BME280;59503;53.486;10.196;2023-03-21T07:51:44;101477.25;;;8.32;100.00
71666;BME280;59503;53.486;10.196;2023-03-21T07:54:10;101470.59;;;8.21;100.00
71666;BME280;59503;53.486;10.196;2023-03-21T07:56:35;101481.22;;;8.35;100.00
71666;BME280;59503;53.486;10.196;2023-03-21T07:59:01;101482.81;;;8.36;100.00
71666;BME280;59503;53.486;10.196;2023-03-21T08:01:26;101471.81;;;8.32;100.00
71666;BME280;59503;53.486;10.196;2023-03-21T08:03:52;101481.34;;;8.38;100.00
71666;BME280;59503;53.486;10.196;2023-03-21T08:06:20;101471.81;;;8.32;100.00
71666;BME280;59503;53.486;10.196;2023-03-21T08:08:46;101477.38;;;8.36;100.00
71666;BME280;59503;53.486;10.196;2023-03-21T08:11:12;101474.00;;;8.39;100.00
71666;BME280;59503;53.486;10.196;2023-03-21T08:13:37;101475.72;;;8.43;100.00
71666;BME280;59503;53.486;10.196;2023-03-21T08:16:03;101471.31;;;8.39;100.00
71666;BME280;59503;53.486;10.196;2023-03-21T08:18:29;101481.47;;;8.42;100.00
71666;BME280;59503;53.486;10.196;2023-03-21T08:20:56;101473.22;;;8.38;100.00
71666;BME280;59503;53.486;10.196;2023-03-21T08:23:22;101475.91;;;8.38;100.00
71666;BME280;59503;53.486;10.196;2023-03-21T08:25:55;101474.81;;;8.39;100.00
71666;BME280;59503;53.486;10.196;2023-03-21T08:28:21;101473.94;;;8.47;100.00
71666;BME280;59503;53.486;10.196;2023-03-21T08:30:48;101471.72;;;8.49;100.00
71666;BME280;59503;53.486;10.196;2023-03-21T08:33:14;101469.34;;;8.48;100.00
71666;BME280;59503;53.486;10.196;2023-03-21T08:35:40;101467.09;;;8.50;100.00
71666;BME280;59503;53.486;10.196;2023-03-21T08:38:06;101467.03;;;8.58;100.00
71666;BME280;59503;53.486;10.196;2023-03-21T08:40:32;101472.50;;;8.70;100.00
71666;BME280;59503;53.486;10.196;2023-03-21T08:42:58;101466.63;;;8.68;100.00
71666;BME280;59503;53.486;10.196;2023-03-21T08:45:24;101468.28;;;8.61;100.00
71666;BME280;59503;53.486;10.196;2023-03-21T08:47:51;101473.69;;;8.61;100.00
71666;BME280;59503;53.486;10.196;2023-03-21T08:50:19;101471.72;;;8.70;100.00
71666;BME280;59503;53.486;10.196;2023-03-21T08:52:45;101462.94;;;8.73;100.00
71666;BME280;59503;53.486;10.196;2023-03-21T08:55:11;101462.72;;;8.78;100.00
71666;BME280;59503;53.486;10.196;2023-03-21T08:57:37;101456.50;;;8.77;100.00
71666;BME280;59503;53.486;10.196;2023-03-21T09:00:04;101470.13;;;8.90;100.00
71666;BME280;59503;53.486;10.196;2023-03-21T09:02:44;101469.84;;;8.82;100.00
71666;BME280;59503;53.486;10.196;2023-03-21T09:05:11;101464.97;;;8.76;100.00
71666;BME280;59503;53.486;10.196;2023-03-21T09:07:38;101457.56;;;8.85;100.00
71666;BME280;59503;53.486;10.196;2023-03-21T09:10:05;101460.41;;;8.89;100.00
71666;BME280;59503;53.486;10.196;2023-03-21T09:12:33;101460.41;;;8.89;100.00
71666;BME280;59503;53.486;10.196;2023-03-21T09:14:58;101463.75;;;8.86;100.00
71666;BME280;59503;53.486;10.196;2023-03-21T09:17:27;101451.22;;;8.81;100.00
71666;BME280;59503;53.486;10.196;2023-03-21T09:19:53;101455.84;;;8.80;100.00
71666;BME280;59503;53.486;10.196;2023-03-21T09:22:19;101454.53;;;8.87;100.00
71666;BME280;59503;53.486;10.196;2023-03-21T09:24:46;101468.97;;;8.91;100.00
71666;BME280;59503;53.486;10.196;2023-03-21T09:27:15;101463.13;;;8.89;100.00
71666;BME280;59503;53.486;10.196;2023-03-21T09:29:43;101471.06;;;8.94;100.00
71666;BME280;59503;53.486;10.196;2023-03-21T09:32:11;101457.28;;;8.99;100.00
71666;BME280;59503;53.486;10.196;2023-03-21T09:34:38;101465.84;;;9.01;100.00
71666;BME280;59503;53.486;10.196;2023-03-21T09:37:08;101464.81;;;9.14;100.00
71666;BME280;59503;53.486;10.196;2023-03-21T09:39:40;101458.56;;;9.13;100.00
71666;BME280;59503;53.486;10.196;2023-03-21T09:47:45;101453.75;;;9.31;100.00
71666;BME280;59503;53.486;10.196;2023-03-21T09:50:23;101459.06;;;9.27;100.00
71666;BME280;59503;53.486;10.196;2023-03-21T09:53:00;101451.50;;;9.33;100.00
71666;BME280;59503;53.486;10.196;2023-03-21T09:55:31;101459.41;;;9.38;100.00
71666;BME280;59503;53.486;10.196;2023-03-21T09:58:03;101446.19;;;9.36;100.00
71666;BME280;59503;53.486;10.196;2023-03-21T10:00:35;101443.69;;;9.31;100.00
71666;BME280;59503;53.486;10.196;2023-03-21T10:03:05;101452.19;;;9.42;100.00
71666;BME280;59503;53.486;10.196;2023-03-21T10:05:37;101450.50;;;9.49;100.00
71666;BME280;59503;53.486;10.196;2023-03-21T10:08:07;101450.06;;;9.47;100.00
71666;BME280;59503;53.486;10.196;2023-03-21T10:10:42;101452.91;;;9.63;100.00
71666;BME280;59503;53.486;10.196;2023-03-21T10:13:40;101455.53;;;9.83;100.00
71666;BME280;59503;53.486;10.196;2023-03-21T10:16:16;101448.19;;;9.84;100.00
71666;BME280;59503;53.486;10.196;2023-03-21T10:18:43;101454.41;;;9.72;100.00
71666;BME280;59503;53.486;10.196;2023-03-21T10:21:17;101443.09;;;9.70;100.00
71666;BME280;59503;53.486;10.196;2023-03-21T10:23:44;101446.81;;;9.78;100.00
71666;BME280;59503;53.486;10.196;2023-03-21T10:26:10;101436.41;;;9.80;100.00
71666;BME280;59503;53.486;10.196;2023-03-21T10:28:37;101433.69;;;9.80;100.00
71666;BME280;59503;53.486;10.196;2023-03-21T10:31:07;101432.78;;;9.64;100.00
71666;BME280;59503;53.486;10.196;2023-03-21T10:33:38;101429.41;;;9.67;100.00
71666;BME280;59503;53.486;10.196;2023-03-21T10:36:22;101431.41;;;9.58;100.00
71666;BME280;59503;53.486;10.196;2023-03-21T10:38:54;101428.56;;;9.54;100.00
71666;BME280;59503;53.486;10.196;2023-03-21T10:41:20;101433.91;;;9.51;100.00
71666;BME280;59503;53.486;10.196;2023-03-21T10:44:02;101424.28;;;9.41;100.00
71666;BME280;59503;53.486;10.196;2023-03-21T10:46:28;101427.09;;;9.33;100.00
71666;BME280;59503;53.486;10.196;2023-03-21T10:48:54;101431.19;;;9.39;100.00
71666;BME280;59503;53.486;10.196;2023-03-21T10:51:22;101427.31;;;9.40;100.00
71666;BME280;59503;53.486;10.196;2023-03-21T10:54:14;101426.19;;;9.41;100.00
71666;BME280;59503;53.486;10.196;2023-03-21T10:59:59;101421.31;;;9.34;100.00
71666;BME280;59503;53.486;10.196;2023-03-21T11:02:30;101419.53;;;9.38;100.00
71666;BME280;59503;53.486;10.196;2023-03-21T11:05:05;101418.03;;;9.29;100.00
71666;BME280;59503;53.486;10.196;2023-03-21T11:07:32;101422.78;;;9.32;100.00
71666;BME280;59503;53.486;10.196;2023-03-21T11:09:59;101420.88;;;9.32;100.00
71666;BME280;59503;53.486;10.196;2023-03-21T11:12:36;101413.50;;;9.33;100.00
71666;BME280;59503;53.486;10.196;2023-03-21T11:17:52;101408.56;;;9.47;100.00
71666;BME280;59503;53.486;10.196;2023-03-21T11:20:19;101407.31;;;9.44;100.00
71666;BME280;59503;53.486;10.196;2023-03-21T11:22:45;101405.41;;;9.45;100.00
71666;BME280;59503;53.486;10.196;2023-03-21T11:25:23;101405.50;;;9.48;100.00
71666;BME280;59503;53.486;10.196;2023-03-21T11:27:52;101406.31;;;9.49;100.00
71666;BME280;59503;53.486;10.196;2023-03-21T11:30:23;101407.22;;;9.53;100.00
71666;BME280;59503;53.486;10.196;2023-03-21T11:32:53;101401.13;;;9.56;100.00
71666;BME280;59503;53.486;10.196;2023-03-21T11:35:35;101398.94;;;9.49;100.00
71666;BME280;59503;53.486;10.196;2023-03-21T11:38:02;101397.84;;;9.50;100.00
71666;BME280;59503;53.486;10.196;2023-03-21T11:40:35;101389.34;;;9.52;100.00
71666;BME280;59503;53.486;10.196;2023-03-21T11:48:41;101380.53;;;9.79;100.00
71666;BME280;59503;53.486;10.196;2023-03-21T11:51:33;101389.78;;;9.78;100.00
71666;BME280;59503;53.486;10.196;2023-03-21T11:54:21;101381.06;;;9.84;100.00
71666;BME280;59503;53.486;10.196;2023-03-21T11:57:00;101388.31;;;9.92;100.00
71666;BME280;59503;53.486;10.196;2023-03-21T12:00:10;101380.63;;;9.94;100.00
71666;BME280;59503;53.486;10.196;2023-03-21T12:05:31;101370.44;;;9.79;100.00
71666;BME280;59503;53.486;10.196;2023-03-21T12:10:53;101370.78;;;9.90;100.00
71666;BME280;59503;53.486;10.196;2023-03-21T12:16:04;101363.41;;;10.02;100.00
71666;BME280;59503;53.486;10.196;2023-03-21T12:21:34;101357.88;;;10.11;100.00
71666;BME280;59503;53.486;10.196;2023-03-21T12:39:45;101341.59;;;10.11;100.00
71666;BME280;59503;53.486;10.196;2023-03-21T12:44:44;101339.75;;;10.03;100.00
71666;BME280;59503;53.486;10.196;2023-03-21T12:47:21;101332.19;;;9.96;100.00
71666;BME280;59503;53.486;10.196;2023-03-21T12:49:51;101330.03;;;10.02;100.00
71666;BME280;59503;53.486;10.196;2023-03-21T12:52:26;101331.06;;;9.97;100.00
71666;BME280;59503;53.486;10.196;2023-03-21T12:57:26;101325.50;;;10.06;100.00
71666;BME280;59503;53.486;10.196;2023-03-21T13:02:43;101316.91;;;9.92;100.00
71666;BME280;59503;53.486;10.196;2023-03-21T13:05:29;101319.75;;;9.83;100.00
71666;BME280;59503;53.486;10.196;2023-03-21T13:08:19;101315.91;;;9.84;100.00
71666;BME280;59503;53.486;10.196;2023-03-21T13:10:48;101305.97;;;9.76;100.00
71666;BME280;59503;53.486;10.196;2023-03-21T13:13:17;101307.56;;;9.77;100.00
71666;BME280;59503;53.486;10.196;2023-03-21T13:18:53;101303.47;;;9.83;100.00
71666;BME280;59503;53.486;10.196;2023-03-21T13:21:42;101296.81;;;9.81;100.00
71666;BME280;59503;53.486;10.196;2023-03-21T13:26:46;101285.41;;;9.75;100.00
71666;BME280;59503;53.486;10.196;2023-03-21T13:29:23;101291.38;;;9.81;100.00
71666;BME280;59503;53.486;10.196;2023-03-21T13:31:51;101292.72;;;9.87;100.00
71666;BME280;59503;53.486;10.196;2023-03-21T13:34:20;101282.66;;;9.87;100.00
71666;BME280;59503;53.486;10.196;2023-03-21T13:36:48;101289.22;;;9.86;100.00
71666;BME280;59503;53.486;10.196;2023-03-21T13:39:35;101280.53;;;9.81;100.00
71666;BME280;59503;53.486;10.196;2023-03-21T13:42:17;101275.97;;;9.85;100.00
71666;BME280;59503;53.486;10.196;2023-03-21T13:44:57;101285.72;;;9.86;100.00
71666;BME280;59503;53.486;10.196;2023-03-21T13:55:42;101270.78;;;9.80;100.00
71666;BME280;59503;53.486;10.196;2023-03-21T13:58:32;101269.66;;;9.81;100.00
71666;BME280;59503;53.486;10.196;2023-03-21T14:04:25;101264.09;;;9.89;100.00
71666;BME280;59503;53.486;10.196;2023-03-21T14:07:41;101259.91;;;9.92;100.00
71666;BME280;59503;53.486;10.196;2023-03-21T14:09:45;101263.75;;;9.91;100.00
71666;BME280;59503;53.486;10.196;2023-03-21T14:12:22;101260.59;;;9.89;100.00
71666;BME280;59503;53.486;10.196;2023-03-21T14:14:52;101263.94;;;9.98;100.00
71666;BME280;59503;53.486;10.196;2023-03-21T14:19:51;101256.72;;;9.90;100.00
71666;BME280;59503;53.486;10.196;2023-03-21T14:22:18;101247.94;;;9.81;100.00
71666;BME280;59503;53.486;10.196;2023-03-21T14:24:54;101254.50;;;9.80;100.00
71666;BME280;59503;53.486;10.196;2023-03-21T14:27:21;101254.47;;;9.92;100.00
71666;BME280;59503;53.486;10.196;2023-03-21T14:29:48;101255.63;;;9.79;100.00
71666;BME280;59503;53.486;10.196;2023-03-21T14:32:21;101245.91;;;9.78;100.00
71666;BME280;59503;53.486;10.196;2023-03-21T14:34:48;101248.75;;;9.69;100.00